Windhoek, Namibia

7:45 AM CAT on July 17, 2019 (GMT +0200)
Windhoek | | Change Station

Elev 5433 ft 22.58 °S, 17.07 °E | Updated 1 minute ago

Clear
Clear
44.8 °F
Feels Like 45 °F
N
0
Wind Variable Wind from SSW
Gusts 1.2 mph

Today
High -- | Low -- °F
--% Chance of Precip.
Yesterday
High -- | Low -- °F
Precip. -- in
Pressure 30.42 in
Visibility -9999.0 miles
Clouds
Windchill 45 °F
Dew Point 17 °F
Humidity 32%
Rainfall 0.00 in
Snow Depth Not available.
7:31 AM 6:24 PM
Full, 100% visible
METAR FYWE 170500Z 16004KT 120V180 CAVOK 05/M11 Q1030
Pressure 30.42 in
Visibility -9999.0 miles
Clouds
Windchill 45 °F
Dew Point 17 °F
Humidity 32%
Rainfall 0.00 in
Snow Depth Not available.
7:31 AM 6:24 PM
Full, 100% visible
METAR FYWE 170500Z 16004KT 120V180 CAVOK 05/M11 Q1030

Get Severe Weather Alerts

Thanks for signing up!

Be on the lookout for a verification email in your inbox.

You'll start receiving the daily forecast at 6 AM.

×

10-Day Weather Forecast

No radar image for this location.
×

Almanac

Astronomy

Jul. 17, 2019 Rise Set
Actual Time
Civil Twilight
Nautical Twilight
Astronomical Twilight
Moon
Length of Visible Light
Length of Day
Tomorrow will be .
, % of the Moon is Illuminated

Today's Extremes

Country Highs Country Lows

Community

WunderPhotos

Category 6

Welcome to Category 6. This is the collective home for Weather Underground's featured writeups by Dr. Jeff Masters (right), Bob Henson (left), Chris Burt, and other regular contributors.

Nearby

Air Quality

  Air Quality AQ Index Pollutant
Not available.

Snow Depth

Station Depth Elevation

Earthquake Activity

City Distance Mag. Time & Date
Minimum magnitude displayed is 2.5.

Coastal Water Temperatures

Place Temperature

Stations

Nearby Weather Stations

Station Location Temp. Windchill Dew Point Humidity Wind Precip. Elev Updated Type